Time;durP1;ratioP1;P1;durP2;ratioP2;P2;SDS_P1;SDS_P2;PMS_P1;PMS_P2;Temp;Humidity;BMP_temperature;BMP_pressure;BME280_temperature;BME280_humidity;BME280_pressure;Samples;Min_cycle;Max_cycle;Signal;HPM_P1;HPM_P2
2024/03/28 00:00:47;;;;;;;4.68;0.50;;;;;;;9.34;100.00;98851.38;5042003;28;20568;-68
2024/03/28 00:03:13;;;;;;;2.15;0.40;;;;;;;9.34;100.00;98847.97;5041792;28;20494;-68
2024/03/28 00:05:38;;;;;;;1.85;0.30;;;;;;;9.31;100.00;98849.94;5038006;28;20032;-68
2024/03/28 00:08:04;;;;;;;3.80;0.43;;;;;;;9.31;100.00;98855.16;5043221;28;20025;-68
2024/03/28 00:10:30;;;;;;;1.00;0.40;;;;;;;9.31;100.00;98860.34;5037549;28;20029;-67
2024/03/28 00:12:56;;;;;;;1.85;0.20;;;;;;;9.31;100.00;98867.34;5039772;28;20029;-68
2024/03/28 00:15:21;;;;;;;2.58;0.20;;;;;;;9.26;100.00;98861.84;5041405;28;20078;-68
2024/03/28 00:17:47;;;;;;;1.15;0.40;;;;;;;9.23;100.00;98862.19;5036292;28;20051;-68
2024/03/28 00:20:12;;;;;;;1.45;0.20;;;;;;;9.18;100.00;98867.91;5034864;28;20080;-68
2024/03/28 00:22:38;;;;;;;1.42;0.30;;;;;;;9.16;100.00;98875.06;5042481;28;20075;-68
2024/03/28 00:25:04;;;;;;;1.98;0.63;;;;;;;9.17;100.00;98875.88;5038877;28;20204;-68
2024/03/28 00:27:29;;;;;;;3.40;0.68;;;;;;;9.14;100.00;98871.03;5044620;28;20021;-68
2024/03/28 00:29:55;;;;;;;1.70;0.20;;;;;;;9.11;100.00;98860.97;5042690;28;20098;-68
2024/03/28 00:32:20;;;;;;;1.33;0.30;;;;;;;9.11;100.00;98871.38;5036536;28;20029;-68
2024/03/28 00:34:46;;;;;;;1.73;0.40;;;;;;;9.10;100.00;98872.34;5041784;28;20037;-68
2024/03/28 00:37:11;;;;;;;3.17;0.40;;;;;;;9.09;100.00;98871.53;5041392;28;20504;-67
2024/03/28 00:39:38;;;;;;;2.75;0.40;;;;;;;9.10;100.00;98874.94;5040537;28;20048;-68
2024/03/28 00:42:03;;;;;;;1.10;0.30;;;;;;;9.09;100.00;98884.53;5035561;28;20033;-67
2024/03/28 00:44:29;;;;;;;1.83;0.30;;;;;;;9.04;100.00;98891.22;5040215;28;20480;-68
2024/03/28 00:46:54;;;;;;;1.30;0.30;;;;;;;9.05;100.00;98885.06;5038335;28;20119;-67
2024/03/28 00:49:20;;;;;;;0.88;0.15;;;;;;;9.03;100.00;98900.00;5038648;28;20041;-67
2024/03/28 00:51:47;;;;;;;1.08;0.20;;;;;;;9.02;100.00;98904.38;5045426;28;20025;-68
2024/03/28 00:54:12;;;;;;;1.60;0.40;;;;;;;9.02;100.00;98904.38;5037026;28;20420;-68
2024/03/28 00:56:38;;;;;;;1.05;0.30;;;;;;;9.02;100.00;98904.38;5043454;28;20036;-68
2024/03/28 00:59:03;;;;;;;4.45;0.28;;;;;;;9.06;100.00;98904.84;5037503;28;20397;-68
2024/03/28 01:01:29;;;;;;;1.73;0.32;;;;;;;9.05;100.00;98903.25;5034332;28;20040;-68
2024/03/28 01:03:54;;;;;;;2.45;0.63;;;;;;;9.05;100.00;98913.63;5035265;28;20029;-68
2024/03/28 01:06:20;;;;;;;1.73;0.20;;;;;;;9.02;100.00;98908.78;5038493;28;20130;-68
2024/03/28 01:08:45;;;;;;;0.65;0.20;;;;;;;8.92;100.00;98909.84;5038244;28;20120;-67
2024/03/28 01:11:10;;;;;;;0.90;0.20;;;;;;;8.95;100.00;98911.28;5041112;28;20104;-68
2024/03/28 01:13:37;;;;;;;4.15;0.30;;;;;;;8.91;100.00;98908.22;5033254;28;20034;-68
2024/03/28 01:16:03;;;;;;;2.75;0.20;;;;;;;8.93;100.00;98905.44;5032137;28;20488;-67
2024/03/28 01:18:28;;;;;;;6.57;0.20;;;;;;;8.89;100.00;98907.56;5033166;28;20033;-67
2024/03/28 01:20:54;;;;;;;1.85;0.20;;;;;;;8.88;100.00;98905.97;5031594;28;20136;-67
2024/03/28 01:23:19;;;;;;;0.40;0.10;;;;;;;8.88;100.00;98905.97;5034516;28;20041;-67
2024/03/28 01:25:45;;;;;;;1.20;0.10;;;;;;;8.88;100.00;98903.38;5037003;28;20045;-69
2024/03/28 01:28:10;;;;;;;1.92;0.20;;;;;;;8.85;100.00;98908.91;5044212;28;20041;-68
2024/03/28 01:30:36;;;;;;;2.47;0.30;;;;;;;8.81;100.00;98891.22;5036921;28;20477;-67
2024/03/28 01:33:01;;;;;;;1.15;0.10;;;;;;;8.79;100.00;98888.81;5041483;28;20060;-68
2024/03/28 01:35:28;;;;;;;2.53;0.20;;;;;;;8.82;100.00;98892.84;5039079;28;20391;-68
2024/03/28 01:37:53;;;;;;;1.92;0.73;;;;;;;8.79;100.00;98882.81;5043342;28;20401;-68
2024/03/28 01:40:19;;;;;;;4.40;0.20;;;;;;;8.73;100.00;98880.88;5047392;28;20097;-68
2024/03/28 01:42:44;;;;;;;3.08;0.22;;;;;;;8.61;100.00;98883.84;5044394;28;20037;-68
2024/03/28 01:45:10;;;;;;;0.55;0.20;;;;;;;8.60;100.00;98886.63;5041672;28;20071;-68
2024/03/28 01:47:36;;;;;;;7.05;0.15;;;;;;;8.64;100.00;98880.13;5042871;28;20115;-67
2024/03/28 01:50:02;;;;;;;0.28;0.10;;;;;;;8.70;100.00;98889.00;5040438;28;20025;-68
2024/03/28 01:52:27;;;;;;;0.70;0.20;;;;;;;8.68;100.00;98881.38;5042503;28;20037;-68
2024/03/28 01:54:54;;;;;;;0.65;0.20;;;;;;;8.70;100.00;98889.81;5042498;28;20056;-68
2024/03/28 01:57:21;;;;;;;2.65;0.20;;;;;;;8.68;100.00;98894.38;5038346;28;20037;-68
2024/03/28 01:59:47;;;;;;;0.90;0.10;;;;;;;8.71;100.00;98901.00;5040657;28;20098;-68
2024/03/28 02:02:14;;;;;;;4.82;0.20;;;;;;;8.71;100.00;98901.81;5038518;28;20468;-68
2024/03/28 02:04:39;;;;;;;2.80;0.30;;;;;;;8.68;100.00;98902.16;5042913;28;20045;-68
2024/03/28 02:07:05;;;;;;;0.52;0.10;;;;;;;8.67;100.00;98900.53;5042615;28;20025;-68
2024/03/28 02:09:31;;;;;;;0.98;0.20;;;;;;;8.70;100.00;98904.59;5049037;28;20385;-68
2024/03/28 02:11:58;;;;;;;4.68;0.20;;;;;;;8.67;100.00;98910.13;5048112;28;20072;-68
2024/03/28 02:14:24;;;;;;;2.15;0.10;;;;;;;8.66;100.00;98914.50;5043614;28;20056;-68
2024/03/28 02:16:50;;;;;;;0.30;0.10;;;;;;;8.67;100.00;98913.53;5049079;28;20093;-67
2024/03/28 02:19:15;;;;;;;5.05;0.10;;;;;;;8.67;100.00;98920.50;5045806;28;20033;-68
2024/03/28 02:21:44;;;;;;;2.88;0.10;;;;;;;8.62;100.00;98923.59;5039513;28;20025;-67
2024/03/28 02:24:10;;;;;;;0.38;0.10;;;;;;;8.61;100.00;98922.00;5040488;28;20050;-68
2024/03/28 02:26:35;;;;;;;1.50;0.10;;;;;;;8.60;100.00;98920.38;5043097;28;20021;-67
2024/03/28 02:29:01;;;;;;;4.97;0.20;;;;;;;8.55;100.00;98922.66;5047339;28;20435;-67
2024/03/28 02:31:26;;;;;;;0.57;0.10;;;;;;;8.46;100.00;98911.53;5047800;28;20056;-68
2024/03/28 02:33:52;;;;;;;0.45;0.10;;;;;;;8.49;100.00;98923.38;5049563;28;20045;-68
2024/03/28 02:36:18;;;;;;;4.15;0.30;;;;;;;8.45;100.00;98929.88;5048854;28;20029;-68
2024/03/28 02:38:43;;;;;;;0.90;0.10;;;;;;;8.42;100.00;98922.41;5045963;28;20030;-67
2024/03/28 02:41:09;;;;;;;0.85;0.20;;;;;;;8.40;100.00;98919.97;5043391;28;20052;-68
2024/03/28 02:43:34;;;;;;;5.88;0.20;;;;;;;8.46;100.00;98919.31;5042118;28;20052;-68
2024/03/28 02:46:00;;;;;;;2.83;0.10;;;;;;;8.50;100.00;98919.78;5046339;28;20551;-68
2024/03/28 02:48:26;;;;;;;1.55;0.10;;;;;;;8.43;100.00;98913.66;5043141;28;20044;-68
2024/03/28 02:50:51;;;;;;;2.10;0.10;;;;;;;8.42;100.00;98919.81;5049469;28;20032;-68
2024/03/28 02:53:16;;;;;;;0.90;0.10;;;;;;;8.46;100.00;98918.50;5037439;28;20106;-67
2024/03/28 02:55:42;;;;;;;0.30;0.10;;;;;;;8.46;100.00;98924.50;5043872;28;20515;-68
2024/03/28 02:58:08;;;;;;;0.80;0.10;;;;;;;8.45;100.00;98932.47;5041350;28;20490;-68
2024/03/28 03:00:34;;;;;;;0.32;0.05;;;;;;;8.43;100.00;98926.63;5044208;28;20025;-67
2024/03/28 03:03:01;;;;;;;0.20;0.10;;;;;;;8.45;100.00;98928.09;5046035;28;20480;-67
2024/03/28 03:05:27;;;;;;;5.90;0.10;;;;;;;8.46;100.00;98939.28;5045637;28;20095;-68
2024/03/28 03:07:52;;;;;;;0.30;0.10;;;;;;;8.45;100.00;98942.84;5049830;28;20445;-68
2024/03/28 03:10:18;;;;;;;0.50;0.05;;;;;;;8.45;100.00;98945.44;5042812;28;20052;-67
2024/03/28 03:12:43;;;;;;;1.08;0.20;;;;;;;8.46;100.00;98944.47;5043638;28;20033;-68
2024/03/28 03:15:09;;;;;;;2.55;0.20;;;;;;;8.36;100.00;98944.66;5050924;28;20033;-67
2024/03/28 03:17:35;;;;;;;0.77;0.20;;;;;;;8.37;100.00;98945.47;5037791;28;20497;-68
2024/03/28 03:20:07;;;;;;;1.05;0.20;;;;;;;8.28;100.00;98948.03;5044546;28;20127;-68
2024/03/28 03:22:33;;;;;;;1.40;0.20;;;;;;;8.26;100.00;98949.19;5044076;28;20472;-68
2024/03/28 03:24:59;;;;;;;1.88;0.20;;;;;;;8.25;100.00;98958.75;5042445;28;20033;-69
2024/03/28 03:27:32;;;;;;;2.10;0.10;;;;;;;8.26;100.00;98959.56;5046135;28;20052;-69
2024/03/28 03:35:29;;;;;;;1.92;0.30;;;;;;;8.26;100.00;98957.78;5042431;28;20044;-68
2024/03/28 03:37:54;;;;;;;2.03;0.20;;;;;;;8.19;100.00;98964.59;5043234;28;20033;-68
2024/03/28 03:40:20;;;;;;;3.45;0.20;;;;;;;8.21;100.00;98972.22;5046396;28;20036;-68
2024/03/28 03:42:45;;;;;;;1.55;0.10;;;;;;;8.23;100.00;98973.69;5048055;28;20034;-68
2024/03/28 03:45:11;;;;;;;1.80;0.20;;;;;;;8.23;100.00;98975.47;5046547;28;20041;-67
2024/03/28 03:47:36;;;;;;;3.05;0.20;;;;;;;8.26;100.00;98981.13;5049720;28;20162;-68
2024/03/28 03:50:02;;;;;;;0.45;0.10;;;;;;;8.28;100.00;98984.38;5049615;28;20029;-67
2024/03/28 03:52:27;;;;;;;2.22;0.10;;;;;;;8.20;100.00;98981.78;5043410;28;20119;-67
2024/03/28 03:54:53;;;;;;;0.22;0.00;;;;;;;8.21;100.00;98988.59;5038141;28;20119;-68
2024/03/28 03:57:18;;;;;;;6.38;0.10;;;;;;;8.08;100.00;98987.47;5041050;28;20029;-68
2024/03/28 03:59:44;;;;;;;5.45;0.10;;;;;;;8.13;100.00;98996.41;5039632;28;20030;-68
2024/03/28 04:02:09;;;;;;;0.60;0.10;;;;;;;8.14;100.00;98998.00;5046167;28;20094;-67
2024/03/28 04:04:35;;;;;;;0.95;0.10;;;;;;;8.15;100.00;99004.81;5037055;28;20504;-67
2024/03/28 04:07:00;;;;;;;1.55;0.10;;;;;;;8.19;100.00;99013.09;5040438;28;20034;-68
2024/03/28 04:09:26;;;;;;;5.07;0.10;;;;;;;8.20;100.00;99007.72;5035050;28;20030;-68
2024/03/28 04:11:52;;;;;;;0.28;0.10;;;;;;;8.19;100.00;99011.31;5044576;28;20029;-67
2024/03/28 04:14:18;;;;;;;1.58;0.10;;;;;;;8.19;100.00;99015.69;5043391;28;20036;-67
2024/03/28 04:16:44;;;;;;;2.53;0.10;;;;;;;8.18;100.00;99012.28;5038470;28;20390;-67
2024/03/28 04:19:10;;;;;;;1.83;0.10;;;;;;;8.20;100.00;99019.91;5040472;28;20485;-67
2024/03/28 04:21:36;;;;;;;3.70;0.10;;;;;;;8.20;100.00;99023.31;5035076;28;20029;-68
2024/03/28 04:24:05;;;;;;;2.00;0.30;;;;;;;8.15;100.00;99022.16;5036930;28;20025;-67
2024/03/28 04:26:32;;;;;;;0.70;0.10;;;;;;;8.16;100.00;99027.19;5037746;28;20021;-68
2024/03/28 04:28:57;;;;;;;8.02;0.10;;;;;;;8.20;100.00;99038.88;5040452;28;20041;-67
2024/03/28 04:31:23;;;;;;;0.93;0.10;;;;;;;8.17;100.00;99036.59;5042436;28;20029;-68
2024/03/28 04:33:50;;;;;;;2.03;0.10;;;;;;;8.18;100.00;99038.22;5041062;28;20068;-68
2024/03/28 04:36:15;;;;;;;1.70;0.10;;;;;;;8.21;100.00;99043.09;5041575;28;20025;-67
2024/03/28 04:38:42;;;;;;;0.47;0.00;;;;;;;8.15;100.00;99046.34;5039592;28;20108;-67
2024/03/28 04:41:08;;;;;;;5.80;0.20;;;;;;;8.08;100.00;99050.53;5036331;28;20414;-67
2024/03/28 04:43:34;;;;;;;1.38;0.20;;;;;;;8.11;100.00;99052.00;5045348;28;20108;-67
2024/03/28 04:46:01;;;;;;;1.23;0.25;;;;;;;8.16;100.00;99058.31;5044499;28;20041;-67
2024/03/28 04:48:26;;;;;;;6.10;0.25;;;;;;;8.15;100.00;99054.13;5047314;28;20039;-67
2024/03/28 04:50:52;;;;;;;4.65;0.20;;;;;;;8.09;100.00;99057.34;5042845;28;20037;-67
2024/03/28 04:53:17;;;;;;;2.10;0.10;;;;;;;8.14;100.00;99052.50;5042819;28;20040;-67
2024/03/28 04:55:43;;;;;;;2.17;0.15;;;;;;;8.19;100.00;99052.81;5048159;28;20025;-68
2024/03/28 04:58:08;;;;;;;1.65;0.10;;;;;;;8.22;100.00;99062.06;5043855;28;20087;-67
2024/03/28 05:00:33;;;;;;;1.00;0.10;;;;;;;8.24;100.00;99068.72;5042474;28;20152;-67
2024/03/28 05:03:00;;;;;;;4.20;0.35;;;;;;;8.21;100.00;99069.03;5046983;28;20501;-67
2024/03/28 05:05:26;;;;;;;1.95;0.20;;;;;;;8.22;100.00;99072.44;5037754;28;20033;-67
2024/03/28 05:07:51;;;;;;;1.25;0.20;;;;;;;8.22;100.00;99070.66;5045430;28;20040;-67
2024/03/28 05:10:17;;;;;;;4.55;0.10;;;;;;;8.23;100.00;99079.25;5036616;28;20481;-67
2024/03/28 05:12:43;;;;;;;3.00;0.17;;;;;;;8.25;100.00;99080.72;5042604;28;20037;-67
2024/03/28 05:15:10;;;;;;;1.70;0.22;;;;;;;8.28;100.00;99077.78;5038985;28;20082;-67
2024/03/28 05:17:36;;;;;;;0.77;0.20;;;;;;;8.32;100.00;99079.13;5034147;28;20389;-67
2024/03/28 05:20:02;;;;;;;4.57;0.22;;;;;;;8.31;100.00;99082.66;5040371;28;20025;-67
2024/03/28 05:22:28;;;;;;;1.83;0.20;;;;;;;8.32;100.00;99089.50;5047968;28;20044;-68
2024/03/28 05:24:55;;;;;;;4.53;0.30;;;;;;;8.31;100.00;99080.06;5037087;28;20029;-67
2024/03/28 05:27:20;;;;;;;1.45;0.30;;;;;;;8.31;100.00;99084.44;5035763;28;20025;-68
2024/03/28 05:29:48;;;;;;;0.75;0.10;;;;;;;8.25;100.00;99085.09;5035668;28;20032;-67
2024/03/28 05:32:14;;;;;;;1.95;0.10;;;;;;;8.28;100.00;99087.34;5044312;28;20032;-67
2024/03/28 05:34:39;;;;;;;0.82;0.10;;;;;;;8.34;100.00;99085.94;5034796;28;20457;-67
2024/03/28 05:37:05;;;;;;;0.80;0.20;;;;;;;8.35;100.00;99096.16;5032962;28;20071;-67
2024/03/28 05:39:30;;;;;;;3.55;0.30;;;;;;;8.39;100.00;99087.06;5046261;28;20029;-66
2024/03/28 05:41:56;;;;;;;0.80;0.35;;;;;;;8.40;100.00;99080.09;5046870;28;20037;-66
2024/03/28 05:44:21;;;;;;;1.40;0.20;;;;;;;8.42;100.00;99084.13;5040862;28;20041;-66
2024/03/28 05:46:47;;;;;;;1.20;0.40;;;;;;;8.45;100.00;99080.41;5043824;28;20141;-66
2024/03/28 05:49:13;;;;;;;2.22;0.30;;;;;;;8.39;100.00;99083.66;5042844;28;20040;-67
2024/03/28 05:51:38;;;;;;;4.53;0.35;;;;;;;8.35;100.00;99092.75;5039463;28;20053;-67
2024/03/28 05:54:04;;;;;;;2.20;0.45;;;;;;;8.39;100.00;99099.22;5035931;28;20055;-67
2024/03/28 05:56:29;;;;;;;4.22;0.30;;;;;;;8.40;100.00;99109.44;5037772;28;20108;-67
2024/03/28 05:58:55;;;;;;;3.53;0.55;;;;;;;8.32;100.00;99105.06;5043052;28;20064;-67
2024/03/28 06:01:21;;;;;;;2.97;0.35;;;;;;;8.31;100.00;99108.59;5038774;28;20131;-67
2024/03/28 06:03:46;;;;;;;5.75;0.50;;;;;;;8.32;100.00;99105.06;5041752;28;20033;-67
2024/03/28 06:06:12;;;;;;;4.38;0.50;;;;;;;8.34;100.00;99097.13;5046036;28;20036;-67
2024/03/28 06:08:39;;;;;;;1.13;0.40;;;;;;;8.37;100.00;99096.78;5046311;28;20029;-66
2024/03/28 06:11:05;;;;;;;1.98;0.38;;;;;;;8.36;100.00;99095.16;5041331;28;20037;-66
2024/03/28 06:13:31;;;;;;;4.20;0.40;;;;;;;8.45;100.00;99103.75;5046536;28;20504;-67
2024/03/28 06:15:57;;;;;;;4.30;0.68;;;;;;;8.59;100.00;99108.28;5037303;28;20024;-66
2024/03/28 06:18:24;;;;;;;2.20;0.40;;;;;;;8.78;100.00;99114.91;5045519;28;20421;-67
2024/03/28 06:21:03;;;;;;;5.40;0.50;;;;;;;8.87;100.00;99132.09;5048370;28;20032;-66
2024/03/28 06:23:29;;;;;;;4.05;0.75;;;;;;;8.85;100.00;99132.25;5039272;28;20042;-67
2024/03/28 06:25:55;;;;;;;1.65;0.75;;;;;;;8.81;100.00;99137.94;5044495;28;20037;-67
2024/03/28 06:28:21;;;;;;;6.38;0.40;;;;;;;8.84;100.00;99146.22;5039179;28;20068;-67
2024/03/28 06:30:52;;;;;;;3.65;0.30;;;;;;;8.89;100.00;99150.91;5039272;28;20033;-67
2024/03/28 06:33:21;;;;;;;4.50;0.30;;;;;;;8.93;100.00;99155.63;5028293;28;20107;-67
2024/03/28 06:35:46;;;;;;;0.95;0.20;;;;;;;9.02;100.00;99158.97;5034687;28;20117;-67
2024/03/28 06:38:12;;;;;;;2.58;0.20;;;;;;;9.08;100.00;99152.31;5034867;28;20112;-67
2024/03/28 06:40:37;;;;;;;5.07;0.30;;;;;;;9.14;100.00;99156.84;5048319;28;20025;-67
2024/03/28 06:43:03;;;;;;;1.88;0.32;;;;;;;9.25;100.00;99167.69;5044064;28;20029;-67
2024/03/28 06:45:29;;;;;;;5.03;0.30;;;;;;;9.38;100.00;99174.97;5045865;28;20064;-67
2024/03/28 06:47:55;;;;;;;1.63;0.30;;;;;;;9.46;100.00;99176.72;5039530;28;20041;-67
2024/03/28 06:50:21;;;;;;;2.13;0.20;;;;;;;9.52;100.00;99189.03;5036137;28;20040;-67
2024/03/28 06:52:48;;;;;;;3.38;0.20;;;;;;;9.54;100.00;99182.69;5039939;28;20105;-67
2024/03/28 06:55:14;;;;;;;2.55;0.20;;;;;;;9.54;100.00;99189.69;5040752;28;20489;-66
2024/03/28 06:57:39;;;;;;;4.28;0.20;;;;;;;9.62;100.00;99192.25;5042256;28;20069;-66
2024/03/28 07:00:06;;;;;;;5.05;0.38;;;;;;;9.64;100.00;99196.31;5038807;28;20111;-67
2024/03/28 07:02:32;;;;;;;1.15;0.30;;;;;;;9.69;100.00;99202.78;5041796;28;20347;-67
2024/03/28 07:04:58;;;;;;;2.22;0.30;;;;;;;9.71;100.00;99206.84;5038354;28;20397;-67
2024/03/28 07:07:23;;;;;;;1.63;0.20;;;;;;;9.72;100.00;99212.84;5036741;28;20037;-67
2024/03/28 07:09:49;;;;;;;5.13;0.30;;;;;;;9.70;100.00;99207.81;5037784;28;20064;-67
2024/03/28 07:12:14;;;;;;;2.20;0.20;;;;;;;9.74;100.00;99216.09;5034947;28;20044;-67
2024/03/28 07:14:40;;;;;;;1.10;0.13;;;;;;;9.76;100.00;99214.97;5041091;28;20037;-67
2024/03/28 07:17:05;;;;;;;1.27;0.20;;;;;;;9.80;100.00;99225.84;5037475;28;20029;-66
2024/03/28 07:19:31;;;;;;;0.88;0.20;;;;;;;9.81;100.00;99224.84;5039621;28;20036;-66
2024/03/28 07:21:56;;;;;;;5.13;0.30;;;;;;;9.82;100.00;99227.28;5042053;28;20037;-67
2024/03/28 07:24:22;;;;;;;1.70;0.10;;;;;;;9.80;100.00;99231.03;5037624;28;20456;-67
2024/03/28 07:26:47;;;;;;;3.75;0.40;;;;;;;9.80;100.00;99238.84;5044954;28;20508;-68
2024/03/28 07:29:13;;;;;;;1.45;0.10;;;;;;;9.77;100.00;99247.78;5039789;28;20029;-67
2024/03/28 07:31:39;;;;;;;2.97;0.17;;;;;;;9.73;100.00;99250.91;5048920;28;20025;-67
2024/03/28 07:34:04;;;;;;;1.67;0.10;;;;;;;9.62;100.00;99262.47;5045823;28;20042;-66
2024/03/28 07:36:30;;;;;;;0.68;0.05;;;;;;;9.57;100.00;99267.34;5043291;28;20558;-67
2024/03/28 07:38:56;;;;;;;2.67;0.10;;;;;;;9.67;100.00;99267.16;5045209;28;20025;-67
2024/03/28 07:41:22;;;;;;;1.27;0.10;;;;;;;9.86;100.00;99269.38;5044146;28;20143;-67
2024/03/28 07:43:47;;;;;;;2.60;0.10;;;;;;;9.88;100.00;99270.84;5045843;28;20040;-68
2024/03/28 07:46:13;;;;;;;2.58;0.10;;;;;;;9.93;100.00;99268.50;5044340;28;20033;-68
2024/03/28 07:48:38;;;;;;;5.28;0.10;;;;;;;9.93;100.00;99268.50;5045470;28;20032;-67
2024/03/28 07:51:04;;;;;;;3.65;0.10;;;;;;;9.90;100.00;99274.09;5041057;28;20114;-67
2024/03/28 07:53:32;;;;;;;3.67;0.10;;;;;;;9.89;100.00;99284.66;5033244;28;20474;-67
2024/03/28 07:55:58;;;;;;;2.42;0.10;;;;;;;9.93;100.00;99284.13;5038081;28;20552;-67
2024/03/28 07:58:25;;;;;;;2.17;0.10;;;;;;;9.99;100.00;99293.06;5038664;28;20051;-67
2024/03/28 08:01:01;;;;;;;0.75;0.10;;;;;;;9.99;100.00;99298.25;5047729;28;20036;-68
2024/03/28 08:03:27;;;;;;;5.75;0.10;;;;;;;9.93;100.00;99299.75;5041124;28;20029;-67
2024/03/28 08:05:52;;;;;;;0.85;0.00;;;;;;;9.95;100.00;99312.56;5041826;28;20091;-67
2024/03/28 08:08:18;;;;;;;4.43;0.20;;;;;;;9.92;100.00;99310.34;5036351;28;20155;-67
2024/03/28 08:10:43;;;;;;;3.85;0.10;;;;;;;9.91;100.00;99313.94;5044528;28;20029;-66
2024/03/28 08:13:09;;;;;;;3.50;0.00;;;;;;;9.86;100.00;99317.03;5042413;28;20103;-67
2024/03/28 08:15:36;;;;;;;0.50;0.10;;;;;;;9.85;100.00;99312.00;5041580;28;20060;-67
2024/03/28 08:18:02;;;;;;;1.90;0.10;;;;;;;9.77;100.00;99304.22;5036204;28;20060;-68
2024/03/28 08:20:28;;;;;;;1.85;0.10;;;;;;;9.82;100.00;99299.31;5037997;28;20060;-68
2024/03/28 08:22:56;;;;;;;2.05;0.10;;;;;;;9.81;100.00;99310.69;5046352;28;20032;-68
2024/03/28 08:25:22;;;;;;;8.07;0.15;;;;;;;9.84;100.00;99321.59;5037034;28;20033;-68
2024/03/28 08:27:49;;;;;;;1.45;0.10;;;;;;;9.72;100.00;99311.69;5042976;28;20110;-68
2024/03/28 08:30:15;;;;;;;1.98;0.10;;;;;;;9.74;100.00;99317.53;5043231;28;20039;-68
2024/03/28 08:32:41;;;;;;;9.75;0.55;;;;;;;9.65;100.00;99312.34;5041882;28;20033;-68
2024/03/28 08:35:07;;;;;;;1.33;0.10;;;;;;;9.69;100.00;99319.84;5042963;28;20048;-68
2024/03/28 08:37:32;;;;;;;3.50;0.17;;;;;;;9.78;100.00;99321.44;5033930;28;20495;-67
2024/03/28 08:39:58;;;;;;;5.70;0.20;;;;;;;9.86;100.00;99326.63;5041438;28;20039;-68
2024/03/28 08:42:24;;;;;;;0.88;0.20;;;;;;;9.79;100.00;99328.25;5039127;28;22073;-67
2024/03/28 08:44:49;;;;;;;1.58;0.10;;;;;;;9.76;100.00;99329.41;5046637;28;20040;-68
2024/03/28 08:47:15;;;;;;;3.05;0.10;;;;;;;9.86;100.00;99337.03;5045061;28;20107;-68
2024/03/28 08:49:41;;;;;;;2.00;0.10;;;;;;;9.94;100.00;99349.97;5037727;28;20379;-67
2024/03/28 08:52:07;;;;;;;2.10;0.17;;;;;;;9.95;100.00;99343.81;5037860;28;20033;-68
2024/03/28 08:54:32;;;;;;;1.27;0.20;;;;;;;9.91;100.00;99343.34;5035435;28;20048;-69
2024/03/28 08:56:58;;;;;;;1.88;0.20;;;;;;;9.85;100.00;99351.00;5037349;28;20051;-68
2024/03/28 08:59:23;;;;;;;1.00;0.10;;;;;;;9.83;100.00;99355.56;5035306;28;20029;-68
2024/03/28 09:01:49;;;;;;;5.10;0.50;;;;;;;9.92;100.00;99359.78;5036910;28;20045;-68
2024/03/28 09:04:19;;;;;;;3.13;0.50;;;;;;;9.95;100.00;99360.22;5035683;28;21336;-69
2024/03/28 09:06:49;;;;;;;7.80;0.50;;;;;;;9.87;100.00;99364.66;5035411;28;20056;-68
2024/03/28 09:09:15;;;;;;;1.38;0.30;;;;;;;9.77;100.00;99361.44;5035237;28;20064;-68
2024/03/28 09:11:45;;;;;;;3.03;0.28;;;;;;;9.84;100.00;99358.00;5041602;28;20112;-68
2024/03/28 09:14:11;;;;;;;4.13;0.32;;;;;;;9.89;100.00;99344.50;5036936;28;20032;-68
2024/03/28 09:16:36;;;;;;;3.75;0.20;;;;;;;9.95;100.00;99343.81;5035511;28;20029;-68
2024/03/28 09:19:02;;;;;;;4.75;0.20;;;;;;;9.99;100.00;99347.69;5032751;28;20065;-68
2024/03/28 09:21:28;;;;;;;5.05;0.22;;;;;;;10.04;100.00;99350.59;5037434;28;20040;-68
2024/03/28 09:23:54;;;;;;;7.68;0.20;;;;;;;10.03;100.00;99356.78;5037091;28;20088;-68
2024/03/28 09:26:20;;;;;;;4.68;0.25;;;;;;;10.10;100.00;99368.16;5036816;28;20196;-69
2024/03/28 09:28:58;;;;;;;1.23;0.10;;;;;;;10.06;100.00;99366.06;5038599;28;20490;-68
2024/03/28 09:31:26;;;;;;;6.28;0.10;;;;;;;9.96;100.00;99376.66;5033720;28;20056;-68
2024/03/28 09:33:52;;;;;;;1.75;0.00;;;;;;;9.92;100.00;99383.97;5037445;28;20602;-68
2024/03/28 09:36:17;;;;;;;3.70;0.10;;;;;;;9.87;100.00;99377.69;5035852;28;20035;-68
2024/03/28 09:38:44;;;;;;;4.60;0.20;;;;;;;9.91;100.00;99384.16;5040387;28;20403;-67
2024/03/28 09:41:32;;;;;;;4.15;0.20;;;;;;;9.91;100.00;99389.38;5043313;28;20044;-68
2024/03/28 09:44:10;;;;;;;3.50;0.10;;;;;;;9.70;100.00;99387.28;5039373;28;20514;-68
2024/03/28 09:46:41;;;;;;;0.93;0.00;;;;;;;9.56;100.00;99387.94;5036105;28;20108;-68
2024/03/28 09:49:08;;;;;;;3.95;0.08;;;;;;;9.50;100.00;99394.63;5039782;28;20112;-68
2024/03/28 09:51:35;;;;;;;0.47;0.00;;;;;;;9.51;100.00;99388.44;5037949;28;20048;-68
2024/03/28 09:54:05;;;;;;;3.38;0.32;;;;;;;9.60;100.00;99389.25;5037189;28;20407;-68
2024/03/28 09:56:31;;;;;;;2.97;0.10;;;;;;;9.61;100.00;99389.09;5036775;28;20087;-68
2024/03/28 09:58:57;;;;;;;0.82;0.03;;;;;;;9.61;100.00;99401.28;5038816;28;20491;-68
2024/03/28 10:01:23;;;;;;;2.78;0.00;;;;;;;9.57;100.00;99392.97;5045036;28;20033;-68
2024/03/28 10:04:16;;;;;;;0.85;0.20;;;;;;;9.52;100.00;99389.25;5039372;28;20032;-68
2024/03/28 10:06:56;;;;;;;1.33;0.00;;;;;;;9.47;100.00;99397.53;5038233;28;20048;-68
2024/03/28 10:09:22;;;;;;;4.72;0.20;;;;;;;9.46;100.00;99392.50;5040808;28;20435;-68
2024/03/28 10:11:48;;;;;;;0.45;0.00;;;;;;;9.41;100.00;99393.00;5036538;28;20107;-68
2024/03/28 10:14:19;;;;;;;3.20;0.10;;;;;;;9.42;100.00;99393.81;5035959;28;20335;-69
2024/03/28 10:16:49;;;;;;;1.20;0.13;;;;;;;9.48;100.00;99398.34;5035266;28;20057;-68
2024/03/28 10:19:18;;;;;;;0.77;0.03;;;;;;;9.52;100.00;99403.06;5040213;28;20428;-68
2024/03/28 10:21:46;;;;;;;3.97;0.10;;;;;;;9.52;100.00;99413.47;5046390;28;20037;-68
2024/03/28 10:24:16;;;;;;;2.50;0.10;;;;;;;9.48;100.00;99413.94;5038176;28;20078;-69
2024/03/28 10:26:42;;;;;;;1.52;0.10;;;;;;;9.51;100.00;99418.81;5046579;28;20134;-69
2024/03/28 10:29:12;;;;;;;0.50;0.00;;;;;;;9.48;100.00;99406.16;5047043;28;20469;-67
2024/03/28 10:31:39;;;;;;;1.42;0.20;;;;;;;9.39;100.00;99405.38;5043364;28;20029;-68
2024/03/28 10:34:13;;;;;;;2.05;0.10;;;;;;;9.39;100.00;99420.16;5041885;28;20044;-68
2024/03/28 10:36:38;;;;;;;5.82;0.10;;;;;;;9.35;100.00;99414.47;5044244;28;20120;-69
2024/03/28 10:39:08;;;;;;;1.05;0.10;;;;;;;9.36;100.00;99420.47;5040695;28;20129;-69
2024/03/28 10:41:35;;;;;;;1.38;0.10;;;;;;;9.40;100.00;99421.78;5046594;28;20106;-69
2024/03/28 10:44:01;;;;;;;0.75;0.13;;;;;;;9.34;100.00;99423.22;5047243;28;20036;-69
2024/03/28 10:46:28;;;;;;;1.45;0.10;;;;;;;9.30;100.00;99427.94;5042084;28;20112;-69
2024/03/28 10:49:05;;;;;;;3.00;0.20;;;;;;;9.18;100.00;99428.41;5031682;28;20322;-69
2024/03/28 10:51:43;;;;;;;1.00;0.28;;;;;;;9.13;100.00;99428.06;5039720;28;20061;-69
2024/03/28 10:54:30;;;;;;;1.23;0.17;;;;;;;9.18;100.00;99429.22;5035679;28;20036;-69
2024/03/28 10:56:57;;;;;;;6.50;0.50;;;;;;;9.14;100.00;99420.13;5038266;28;20036;-69
2024/03/28 10:59:25;;;;;;;3.50;0.13;;;;;;;9.23;100.00;99426.13;5038451;28;20037;-69
2024/03/28 11:01:53;;;;;;;0.82;0.10;;;;;;;9.27;100.00;99419.66;5034988;28;20129;-69
2024/03/28 11:04:20;;;;;;;1.05;0.10;;;;;;;9.31;100.00;99428.75;5036458;28;20138;-69
2024/03/28 11:06:46;;;;;;;2.33;0.10;;;;;;;9.32;100.00;99428.59;5039415;28;20481;-68
2024/03/28 11:09:13;;;;;;;7.15;0.20;;;;;;;9.14;100.00;99414.09;5033688;28;20044;-70
2024/03/28 11:11:40;;;;;;;3.38;0.10;;;;;;;8.81;100.00;99395.88;5048296;28;20543;-69
2024/03/28 11:14:06;;;;;;;3.80;0.20;;;;;;;8.74;100.00;99388.88;5039012;28;20083;-68
2024/03/28 11:16:32;;;;;;;2.58;0.10;;;;;;;8.67;100.00;99380.91;5039944;28;20047;-69
2024/03/28 11:19:02;;;;;;;3.67;0.13;;;;;;;8.68;100.00;99384.31;5037186;28;20076;-69
2024/03/28 11:21:28;;;;;;;0.60;0.13;;;;;;;8.57;100.00;99372.44;5037334;28;20386;-68
2024/03/28 11:23:54;;;;;;;1.58;0.10;;;;;;;8.54;100.00;99372.75;5039772;28;20037;-68
2024/03/28 11:26:24;;;;;;;5.40;0.10;;;;;;;8.52;100.00;99393.66;5044504;28;20037;-68
2024/03/28 11:29:03;;;;;;;2.42;0.40;;;;;;;8.47;100.00;99403.75;5036824;28;20020;-68
2024/03/28 11:31:30;;;;;;;3.05;0.40;;;;;;;8.42;100.00;99394.78;5040344;28;20052;-68
2024/03/28 11:33:59;;;;;;;1.65;0.40;;;;;;;8.53;100.00;99407.47;5037018;28;20489;-68
2024/03/28 11:36:29;;;;;;;2.03;0.20;;;;;;;8.63;100.00;99393.38;5037808;28;20033;-68